createdAt,value
2018-01-08T00:02:18.913Z,8.18
2018-01-08T00:04:46.401Z,8.77
2018-01-08T00:07:13.900Z,9.75
2018-01-08T00:09:41.392Z,9.20
2018-01-08T00:12:08.916Z,10.10
2018-01-08T00:14:36.497Z,8.75
2018-01-08T00:17:04.001Z,8.68
2018-01-08T00:19:31.886Z,9.55
2018-01-08T00:21:59.851Z,10.60
2018-01-08T00:24:27.340Z,9.82
2018-01-08T00:26:54.820Z,9.57
2018-01-08T00:29:22.412Z,9.82
2018-01-08T00:31:49.987Z,10.52
2018-01-08T00:34:17.580Z,10.15
2018-01-08T00:36:45.084Z,9.52
2018-01-08T00:39:12.976Z,9.65
2018-01-08T00:41:40.861Z,10.18
2018-01-08T00:44:08.436Z,9.07
2018-01-08T00:46:36.025Z,10.63
2018-01-08T00:49:03.541Z,9.63
2018-01-08T00:51:31.089Z,9.13
2018-01-08T00:53:58.594Z,10.63
2018-01-08T00:56:26.564Z,10.13
2018-01-08T00:58:54.070Z,8.18
2018-01-08T01:01:22.047Z,9.50
2018-01-08T01:03:49.551Z,10.38
2018-01-08T01:06:17.439Z,9.30
2018-01-08T01:08:44.911Z,8.98
2018-01-08T01:11:12.493Z,10.02
2018-01-08T01:13:39.988Z,8.90
2018-01-08T01:16:07.955Z,8.45
2018-01-08T01:18:35.444Z,10.02
2018-01-08T01:21:03.024Z,9.10
2018-01-08T01:23:30.509Z,9.70
2018-01-08T01:25:58.012Z,8.98
2018-01-08T01:28:25.926Z,9.00
2018-01-08T01:30:53.805Z,8.80
2018-01-08T01:33:21.685Z,8.82
2018-01-08T01:35:49.257Z,8.88
2018-01-08T01:38:16.740Z,9.30
2018-01-08T01:40:44.320Z,9.23
2018-01-08T01:43:11.815Z,8.80
2018-01-08T01:45:39.296Z,8.57
2018-01-08T01:48:06.810Z,8.93
2018-01-08T01:50:34.368Z,9.90
2018-01-08T01:53:01.863Z,9.20
2018-01-08T01:55:29.833Z,8.40
2018-01-08T01:57:57.420Z,8.10
2018-01-08T02:00:24.908Z,9.43
2018-01-08T02:02:52.409Z,9.73
2018-01-08T02:05:20.288Z,8.27
2018-01-08T02:07:47.794Z,9.18
2018-01-08T02:10:15.331Z,8.88
2018-01-08T02:12:42.832Z,9.52
2018-01-08T02:15:10.306Z,8.90
2018-01-08T02:17:37.845Z,8.93
2018-01-08T02:20:05.330Z,9.05
2018-01-08T02:22:32.887Z,9.60
2018-01-08T02:25:00.844Z,9.38
2018-01-08T02:27:28.353Z,8.27
2018-01-08T02:29:56.323Z,8.32
2018-01-08T02:32:25.054Z,8.52
2018-01-08T02:34:52.619Z,8.45
2018-01-08T02:37:20.104Z,8.90
2018-01-08T02:39:47.610Z,9.18
2018-01-08T02:42:15.490Z,9.32
2018-01-08T02:44:43.077Z,9.07
2018-01-08T02:47:10.583Z,8.65
2018-01-08T02:49:38.493Z,9.85
2018-01-08T02:52:06.043Z,9.05
2018-01-08T02:54:34.032Z,9.13
2018-01-08T02:57:01.604Z,8.90
2018-01-08T02:59:29.110Z,7.90
2018-01-08T03:01:56.982Z,9.25
2018-01-08T03:04:24.464Z,8.15
2018-01-08T03:06:51.976Z,9.73
2018-01-08T03:09:19.856Z,7.60
2018-01-08T03:11:47.366Z,7.97
2018-01-08T03:14:14.857Z,8.30
2018-01-08T03:16:42.360Z,8.50
2018-01-08T03:19:09.900Z,7.57
2018-01-08T03:21:37.835Z,9.13
2018-01-08T03:24:05.327Z,8.32
2018-01-08T03:26:32.968Z,8.10
2018-01-08T03:29:00.835Z,7.97
2018-01-08T03:31:28.334Z,8.73
2018-01-08T03:33:56.221Z,7.68
2018-01-08T03:36:24.141Z,7.65
2018-01-08T03:38:51.684Z,7.78
2018-01-08T03:41:19.164Z,7.70
2018-01-08T03:43:46.665Z,7.75
2018-01-08T03:46:14.541Z,6.95
2018-01-08T03:48:42.153Z,7.15
2018-01-08T03:51:10.032Z,7.72
2018-01-08T03:53:37.533Z,7.87
2018-01-08T03:56:05.037Z,7.57
2018-01-08T03:58:32.545Z,7.80
2018-01-08T04:01:00.065Z,6.97
2018-01-08T04:03:27.978Z,6.68
2018-01-08T04:05:55.552Z,7.60
2018-01-08T04:08:23.511Z,6.57
2018-01-08T04:10:51.017Z,8.35
2018-01-08T04:13:18.528Z,6.70
2018-01-08T04:15:46.007Z,7.35
2018-01-08T04:18:13.929Z,7.82
2018-01-08T04:20:41.452Z,7.00
2018-01-08T04:23:08.923Z,5.97
2018-01-08T04:25:36.425Z,7.03
2018-01-08T04:28:03.904Z,5.80
2018-01-08T04:30:31.494Z,6.78
2018-01-08T04:32:59.367Z,7.40
2018-01-08T04:35:26.865Z,6.28
2018-01-08T04:37:54.453Z,7.37
2018-01-08T04:40:22.028Z,7.55
2018-01-08T04:42:49.517Z,7.22
2018-01-08T04:45:17.027Z,6.15
2018-01-08T04:47:44.508Z,7.00
2018-01-08T04:50:12.479Z,6.85
2018-01-08T04:52:39.969Z,6.35
2018-01-08T04:55:07.440Z,6.18
2018-01-08T04:57:34.941Z,7.00
2018-01-08T05:00:02.816Z,6.05
2018-01-08T05:02:30.321Z,6.37
2018-01-08T05:04:58.192Z,6.03
2018-01-08T05:07:25.761Z,7.82
2018-01-08T05:09:53.244Z,6.07
2018-01-08T05:12:20.842Z,6.20
2018-01-08T05:14:48.428Z,7.20
2018-01-08T05:17:15.930Z,5.85
2018-01-08T05:19:43.812Z,6.15
2018-01-08T05:22:11.788Z,5.85
2018-01-08T05:24:39.272Z,8.10
2018-01-08T05:27:06.749Z,5.70
2018-01-08T05:29:34.243Z,7.35
2018-01-08T05:32:01.720Z,8.02
2018-01-08T05:34:29.295Z,7.80
2018-01-08T05:36:56.770Z,8.52
2018-01-08T05:39:24.273Z,8.02
2018-01-08T05:41:51.752Z,9.15
2018-01-08T05:44:19.263Z,8.00
2018-01-08T05:46:47.233Z,9.65
2018-01-08T05:49:14.741Z,9.00
2018-01-08T05:51:42.625Z,7.32
2018-01-08T05:54:10.594Z,9.25
2018-01-08T05:56:38.101Z,9.32
2018-01-08T05:59:06.076Z,9.32
2018-01-08T06:01:33.572Z,8.13
2018-01-08T06:04:01.052Z,9.70
2018-01-08T06:06:28.653Z,8.90
2018-01-08T06:08:56.540Z,8.75
2018-01-08T06:11:24.521Z,10.15
2018-01-08T06:13:52.010Z,8.35
2018-01-08T06:16:19.512Z,8.98
2018-01-08T06:18:47.383Z,10.68
2018-01-08T06:21:14.896Z,9.48
2018-01-08T06:23:42.385Z,9.98
2018-01-08T06:26:09.929Z,10.50
2018-01-08T06:28:37.499Z,9.75
2018-01-08T06:31:05.096Z,10.25
2018-01-08T06:33:32.680Z,9.93
2018-01-08T06:36:00.272Z,10.40
2018-01-08T06:38:27.763Z,9.80
2018-01-08T06:40:55.726Z,11.00
2018-01-08T06:43:23.332Z,11.20
2018-01-08T06:45:50.814Z,10.25
2018-01-08T06:48:18.341Z,11.30
2018-01-08T06:50:45.832Z,10.82
2018-01-08T06:53:13.361Z,10.65
2018-01-08T06:55:40.873Z,11.60
2018-01-08T06:58:08.748Z,11.93
2018-01-08T07:00:36.732Z,11.70
2018-01-08T07:03:04.216Z,12.00
2018-01-08T07:05:31.723Z,11.52
2018-01-08T07:07:59.693Z,11.40
2018-01-08T07:10:27.272Z,10.35
2018-01-08T07:12:54.756Z,11.02
2018-01-08T07:15:22.331Z,12.70
2018-01-08T07:17:49.924Z,11.18
2018-01-08T07:20:17.409Z,13.32
2018-01-08T07:22:44.921Z,12.23
2018-01-08T07:25:12.885Z,12.18
2018-01-08T07:27:40.399Z,12.57
2018-01-08T07:30:08.364Z,11.60
2018-01-08T07:32:35.859Z,12.60
2018-01-08T07:35:03.746Z,11.32
2018-01-08T07:37:31.315Z,11.90
2018-01-08T07:39:58.804Z,11.52
2018-01-08T07:42:26.297Z,10.77
2018-01-08T07:44:53.800Z,11.82
2018-01-08T07:47:21.791Z,11.95
2018-01-08T07:49:49.697Z,13.07
2018-01-08T07:52:17.187Z,11.12
2018-01-08T07:54:44.692Z,13.02
2018-01-08T07:57:12.185Z,12.20
2018-01-08T07:59:39.692Z,14.80
2018-01-08T08:02:07.203Z,11.90
2018-01-08T08:04:35.177Z,11.82
2018-01-08T08:07:02.691Z,12.25
2018-01-08T08:09:30.206Z,13.13
2018-01-08T08:11:57.707Z,12.40
2018-01-08T08:14:25.200Z,11.82
2018-01-08T08:16:52.716Z,11.05
2018-01-08T08:19:20.210Z,10.93
2018-01-08T08:21:47.713Z,11.85
2018-01-08T08:24:15.196Z,12.65
2018-01-08T08:26:42.717Z,12.88
2018-01-08T08:29:10.207Z,11.88
2018-01-08T08:31:37.697Z,11.82
2018-01-08T08:34:05.269Z,12.73
2018-01-08T08:36:32.761Z,11.85
2018-01-08T08:39:00.682Z,12.60
2018-01-08T08:41:28.176Z,11.63
2018-01-08T08:43:55.734Z,11.73
2018-01-08T08:46:23.672Z,12.50
2018-01-08T08:48:51.146Z,13.32
2018-01-08T08:51:18.635Z,11.82
2018-01-08T08:53:46.139Z,12.13
2018-01-08T08:56:13.619Z,11.93
2018-01-08T08:58:41.115Z,12.57
2018-01-08T09:01:08.615Z,13.15
2018-01-08T09:03:36.532Z,11.18
2018-01-08T09:06:04.617Z,11.65
2018-01-08T09:08:32.517Z,12.35
2018-01-08T09:11:00.025Z,12.02
2018-01-08T09:13:27.535Z,11.18
2018-01-08T09:15:55.025Z,12.02
2018-01-08T09:18:22.556Z,12.85
2018-01-08T09:20:50.105Z,10.90
2018-01-08T09:23:17.684Z,10.77
2018-01-08T09:25:45.268Z,11.38
2018-01-08T09:28:12.856Z,12.75
2018-01-08T09:30:40.331Z,11.50
2018-01-08T09:33:07.836Z,11.18
2018-01-08T09:35:35.824Z,12.55
2018-01-08T09:38:03.341Z,11.07
2018-01-08T09:40:30.828Z,11.12
2018-01-08T09:42:58.337Z,11.57
2018-01-08T09:45:25.848Z,10.15
2018-01-08T09:47:53.343Z,10.05
2018-01-08T09:50:21.229Z,10.75
2018-01-08T09:52:48.812Z,10.60
2018-01-08T09:55:16.321Z,10.05
2018-01-08T09:57:44.205Z,10.57
2018-01-08T10:00:12.137Z,10.43
2018-01-08T10:02:51.535Z,10.02
2018-01-08T10:05:31.125Z,9.30
2018-01-08T10:08:10.801Z,10.82
2018-01-08T10:10:50.304Z,9.38
2018-01-08T10:13:29.632Z,10.15
2018-01-08T10:16:09.488Z,10.20
2018-01-08T10:18:36.566Z,13.50
2018-01-08T10:21:04.552Z,9.82
2018-01-08T10:23:32.042Z,9.95
2018-01-08T10:25:59.607Z,11.15
2018-01-08T10:28:27.090Z,10.82
2018-01-08T10:30:54.621Z,8.85
2018-01-08T10:33:22.112Z,8.95
2018-01-08T10:35:49.652Z,9.57
2018-01-08T10:38:17.136Z,11.38
2018-01-08T10:40:44.635Z,10.57
2018-01-08T10:43:18.336Z,10.68
2018-01-08T10:45:51.558Z,10.35
2018-01-08T10:48:24.740Z,10.63
2018-01-08T10:50:58.083Z,10.40
2018-01-08T10:56:24.430Z,11.50
2018-01-08T10:58:52.308Z,9.88
2018-01-08T11:01:25.440Z,10.65
2018-01-08T11:03:58.903Z,10.52
2018-01-08T11:06:26.414Z,12.00
2018-01-08T11:08:54.014Z,11.45
2018-01-08T11:11:21.525Z,9.75
2018-01-08T11:13:49.012Z,10.68
2018-01-08T11:16:16.516Z,11.30
2018-01-08T11:18:44.000Z,10.82
2018-01-08T11:21:11.500Z,10.68
2018-01-08T11:23:38.986Z,10.75
2018-01-08T11:26:06.496Z,10.50
2018-01-08T11:28:33.987Z,10.48
2018-01-08T11:31:01.886Z,11.10
2018-01-08T11:33:29.769Z,11.80
2018-01-08T11:35:57.744Z,12.32
2018-01-08T11:38:25.249Z,9.77
2018-01-08T11:40:53.252Z,10.48
2018-01-08T11:43:20.815Z,11.10
2018-01-08T11:45:48.397Z,10.02
2018-01-08T11:48:15.902Z,11.40
2018-01-08T11:50:43.780Z,11.15
2018-01-08T11:53:11.281Z,11.27
2018-01-08T11:55:39.166Z,11.12
2018-01-08T11:58:07.140Z,11.50
2018-01-08T12:00:34.724Z,10.43
2018-01-08T12:03:02.234Z,10.07
2018-01-08T12:05:30.208Z,10.88
2018-01-08T12:07:57.720Z,10.40
2018-01-08T12:10:25.210Z,9.75
2018-01-08T12:12:52.757Z,10.80
2018-01-08T12:15:20.244Z,11.27
2018-01-08T12:17:47.749Z,11.48
2018-01-08T12:20:15.315Z,10.70
2018-01-08T12:22:42.825Z,11.77
2018-01-08T12:25:10.372Z,11.15
2018-01-08T12:27:37.881Z,11.63
2018-01-08T12:30:05.780Z,10.98
2018-01-08T12:32:33.288Z,9.70
2018-01-08T12:35:00.807Z,10.77
2018-01-08T12:37:28.400Z,10.80
2018-01-08T12:39:55.965Z,10.32
2018-01-08T12:42:23.474Z,11.73
2018-01-08T12:44:50.960Z,11.52
2018-01-08T12:47:18.459Z,9.90
2018-01-08T12:49:46.348Z,11.68
2018-01-08T12:52:14.328Z,11.63
2018-01-08T12:54:41.834Z,11.00
2018-01-08T12:57:09.347Z,10.35
2018-01-08T12:59:36.868Z,11.02
2018-01-08T13:02:04.360Z,10.65
2018-01-08T13:04:31.876Z,9.85
2018-01-08T13:06:59.351Z,11.30
2018-01-08T13:09:26.901Z,11.05
2018-01-08T13:11:54.492Z,10.23
2018-01-08T13:14:21.997Z,10.02
2018-01-08T13:16:49.905Z,10.60
2018-01-08T13:19:17.415Z,10.40
2018-01-08T13:21:44.900Z,10.80
2018-01-08T13:24:12.410Z,9.73
2018-01-08T13:26:39.900Z,9.70
2018-01-08T13:29:07.485Z,11.32
2018-01-08T13:31:34.977Z,10.75
2018-01-08T13:34:02.916Z,9.43
2018-01-08T13:36:30.440Z,9.90
2018-01-08T13:38:57.948Z,10.60
2018-01-08T13:41:25.825Z,9.73
2018-01-08T13:43:53.328Z,10.45
2018-01-08T13:46:20.804Z,9.88
2018-01-08T13:48:48.772Z,9.75
2018-01-08T13:51:16.272Z,12.02
2018-01-08T13:53:44.168Z,9.80
2018-01-08T13:56:12.149Z,9.30
2018-01-08T13:58:39.730Z,9.77
2018-01-08T14:01:07.208Z,11.15
2018-01-08T14:03:34.721Z,10.88
2018-01-08T14:06:02.605Z,9.32
2018-01-08T14:08:30.509Z,10.00
2018-01-08T14:10:58.501Z,10.85
2018-01-08T14:13:26.400Z,10.70
2018-01-08T14:15:54.365Z,9.90
2018-01-08T14:18:21.948Z,10.73
2018-01-08T14:20:49.441Z,10.73
2018-01-08T14:23:17.342Z,10.38
2018-01-08T14:25:45.249Z,9.75
2018-01-08T14:28:12.804Z,11.48
2018-01-08T14:30:40.384Z,10.30
2018-01-08T14:33:07.881Z,10.15
2018-01-08T14:35:35.772Z,9.80
2018-01-08T14:38:03.657Z,10.48
2018-01-08T14:40:31.160Z,10.65
2018-01-08T14:42:59.140Z,11.15
2018-01-08T14:45:26.649Z,10.52
2018-01-08T14:47:54.201Z,10.32
2018-01-08T14:50:21.790Z,9.77
2018-01-08T14:52:49.262Z,10.15
2018-01-08T14:55:16.769Z,10.10
2018-01-08T14:57:44.644Z,10.13
2018-01-08T15:00:12.147Z,9.88
2018-01-08T15:02:40.032Z,8.27
2018-01-08T15:05:07.954Z,8.68
2018-01-08T15:07:35.445Z,8.35
2018-01-08T15:10:02.954Z,9.68
2018-01-08T15:12:30.450Z,9.40
2018-01-08T15:14:57.956Z,10.45
2018-01-08T15:17:25.938Z,10.13
2018-01-08T15:19:53.452Z,10.18
2018-01-08T15:22:21.016Z,9.85
2018-01-08T15:24:48.905Z,10.43
2018-01-08T15:27:16.800Z,12.85
2018-01-08T15:29:44.784Z,12.75
2018-01-08T15:32:12.263Z,11.73
2018-01-08T15:34:39.784Z,10.70
2018-01-08T15:37:07.265Z,9.63
2018-01-08T15:39:34.812Z,23.33
2018-01-08T15:42:02.296Z,21.08
2018-01-08T15:44:29.817Z,10.38
2018-01-08T15:46:57.311Z,9.27
2018-01-08T15:49:24.916Z,11.50
2018-01-08T15:51:52.417Z,9.95
2018-01-08T15:54:19.921Z,11.68
2018-01-08T15:56:47.444Z,11.55
2018-01-08T15:59:14.950Z,10.90
2018-01-08T16:01:42.447Z,10.15
2018-01-08T16:04:09.937Z,11.50
2018-01-08T16:06:37.460Z,10.82
2018-01-08T16:09:05.439Z,10.45
2018-01-08T16:11:33.331Z,10.40
2018-01-08T16:14:02.028Z,10.48
2018-01-08T16:16:29.530Z,10.20
2018-01-08T16:18:57.541Z,10.00
2018-01-08T16:21:25.500Z,11.12
2018-01-08T16:23:52.974Z,9.85
2018-01-08T16:26:20.472Z,9.32
2018-01-08T16:28:47.956Z,11.57
2018-01-08T16:31:15.549Z,11.38
2018-01-08T16:33:43.523Z,11.05
2018-01-08T16:36:11.034Z,11.20
2018-01-08T16:38:38.978Z,10.60
2018-01-08T16:41:06.499Z,11.02
2018-01-08T16:43:33.983Z,10.55
2018-01-08T16:46:01.493Z,10.57
2018-01-08T16:48:28.994Z,10.35
2018-01-08T16:50:56.493Z,10.20
2018-01-08T16:53:24.455Z,10.90
2018-01-08T16:55:52.052Z,11.05
2018-01-08T16:58:19.529Z,11.10
2018-01-08T17:00:47.028Z,10.75
2018-01-08T17:03:14.921Z,11.15
2018-01-08T17:05:42.830Z,11.88
2018-01-08T17:08:10.371Z,10.73
2018-01-08T17:10:38.404Z,11.12
2018-01-08T17:13:06.372Z,11.18
2018-01-08T17:15:33.957Z,11.15
2018-01-08T17:18:01.545Z,11.85
2018-01-08T17:20:29.028Z,10.00
2018-01-08T17:22:56.607Z,11.23
2018-01-08T17:25:24.105Z,11.32
2018-01-08T17:27:52.089Z,10.73
2018-01-08T17:30:19.673Z,11.20
2018-01-08T17:32:47.261Z,10.95
2018-01-08T17:35:14.847Z,10.60
2018-01-08T17:37:42.378Z,12.00
2018-01-08T17:40:09.855Z,15.02
2018-01-08T17:42:37.396Z,13.27
2018-01-08T17:45:04.898Z,12.25
2018-01-08T17:47:32.882Z,11.48
2018-01-08T17:50:00.764Z,11.40
2018-01-08T17:52:28.264Z,10.93
2018-01-08T17:54:56.140Z,11.93
2018-01-08T17:57:23.650Z,11.35
2018-01-08T17:59:51.128Z,13.40
2018-01-08T18:02:19.032Z,11.43
2018-01-08T18:04:46.532Z,11.88
2018-01-08T18:07:14.042Z,11.35
2018-01-08T18:09:41.548Z,11.75
2018-01-08T18:12:09.120Z,11.30
2018-01-08T18:14:36.721Z,12.35
2018-01-08T18:17:04.229Z,11.23
2018-01-08T18:19:32.103Z,13.15
2018-01-08T18:22:00.006Z,11.73
2018-01-08T18:24:27.928Z,12.35
2018-01-08T18:26:55.458Z,12.73
2018-01-08T18:29:22.941Z,11.02
2018-01-08T18:31:50.448Z,13.05
2018-01-08T18:34:18.337Z,13.55
2018-01-08T18:36:46.317Z,11.15
2018-01-08T18:39:13.832Z,13.15
2018-01-08T18:41:41.316Z,12.68
2018-01-08T18:44:08.811Z,13.50
2018-01-08T18:46:36.296Z,12.20
2018-01-08T18:49:03.809Z,12.63
2018-01-08T18:51:31.287Z,11.95
2018-01-08T18:53:58.873Z,11.80
2018-01-08T18:56:26.357Z,13.60
2018-01-08T18:58:53.898Z,13.43
2018-01-08T19:01:21.394Z,12.50
2018-01-08T19:03:49.053Z,11.25
2018-01-08T19:06:16.941Z,12.18
2018-01-08T19:08:44.844Z,12.80
2018-01-08T19:11:12.417Z,13.23
2018-01-08T19:13:40.384Z,12.35
2018-01-08T19:16:07.884Z,13.68
2018-01-08T19:18:35.389Z,12.75
2018-01-08T19:21:02.864Z,12.27
2018-01-08T19:23:30.789Z,15.02
2018-01-08T19:25:58.311Z,15.35
2018-01-08T19:28:25.920Z,13.00
2018-01-08T19:30:53.887Z,13.65
2018-01-08T19:33:21.397Z,14.57
2018-01-08T19:35:49.318Z,13.90
2018-01-08T19:38:16.824Z,13.32
2018-01-08T19:40:44.314Z,13.10
2018-01-08T19:43:11.822Z,13.90
2018-01-08T19:45:39.317Z,12.90
2018-01-08T19:48:07.220Z,13.15
2018-01-08T19:50:35.100Z,13.38
2018-01-08T19:53:03.001Z,13.82
2018-01-08T19:55:30.880Z,12.57
2018-01-08T19:57:58.860Z,13.45
2018-01-08T20:00:26.444Z,12.82
2018-01-08T20:02:54.057Z,13.20
2018-01-08T20:05:21.975Z,13.38
2018-01-08T20:07:49.472Z,13.85
2018-01-08T20:10:16.997Z,12.70
2018-01-08T20:12:44.488Z,14.35
2018-01-08T20:15:12.473Z,12.80
2018-01-08T20:17:39.965Z,12.43
2018-01-08T20:20:07.859Z,13.15
2018-01-08T20:22:35.748Z,12.75
2018-01-08T20:25:03.657Z,13.30
2018-01-08T20:27:31.624Z,12.32
2018-01-08T20:29:59.122Z,13.82
2018-01-08T20:32:26.994Z,14.30
2018-01-08T20:34:54.492Z,18.92
2018-01-08T20:37:22.082Z,25.80
2018-01-08T20:39:50.001Z,26.15
2018-01-08T20:42:17.481Z,17.70
2018-01-08T20:44:45.017Z,14.68
2018-01-08T20:47:12.504Z,14.25
2018-01-08T20:49:40.008Z,17.37
2018-01-08T20:52:07.879Z,14.63
2018-01-08T20:54:35.384Z,14.05
2018-01-08T20:57:03.269Z,16.67
2018-01-08T20:59:31.176Z,14.30
2018-01-08T21:01:58.676Z,14.13
2018-01-08T21:04:26.166Z,15.32
2018-01-08T21:06:53.689Z,13.73
2018-01-08T21:09:21.172Z,13.18
2018-01-08T21:11:48.667Z,14.15
2018-01-08T21:14:16.544Z,12.95
2018-01-08T21:16:44.044Z,13.55
2018-01-08T21:19:12.030Z,12.95
2018-01-08T21:21:39.528Z,12.90
2018-01-08T21:24:07.408Z,13.93
2018-01-08T21:26:34.995Z,14.65
2018-01-08T21:29:02.480Z,14.20
2018-01-08T21:31:30.392Z,16.60
2018-01-08T21:33:58.273Z,16.35
2018-01-08T21:36:26.169Z,14.65
2018-01-08T21:38:54.140Z,12.88
2018-01-08T21:41:21.638Z,16.92
2018-01-08T21:43:49.542Z,13.60
2018-01-08T21:46:17.420Z,16.80
2018-01-08T21:48:45.326Z,13.98
2018-01-08T21:51:13.293Z,13.55
2018-01-08T21:53:40.876Z,13.30
2018-01-08T21:56:08.361Z,14.35
2018-01-08T21:58:35.944Z,14.10
2018-01-08T22:01:03.424Z,15.73
2018-01-08T22:03:31.025Z,13.88
2018-01-08T22:05:58.904Z,13.85
2018-01-08T22:08:26.501Z,14.20
2018-01-08T22:10:54.003Z,14.90
2018-01-08T22:13:21.901Z,13.65
2018-01-08T22:15:49.400Z,14.63
2018-01-08T22:18:16.875Z,13.90
2018-01-08T22:20:44.412Z,14.85
2018-01-08T22:23:11.997Z,12.77
2018-01-08T22:25:39.608Z,13.25
2018-01-08T22:28:07.567Z,14.02
2018-01-08T22:30:35.052Z,11.60
2018-01-08T22:33:02.553Z,14.20
2018-01-08T22:35:30.129Z,14.82
2018-01-08T22:37:57.627Z,14.35
2018-01-08T22:40:25.504Z,14.13
2018-01-08T22:42:53.088Z,12.35
2018-01-08T22:45:20.568Z,13.93
2018-01-08T22:47:48.139Z,13.75
2018-01-08T22:50:15.624Z,13.15
2018-01-08T22:52:43.141Z,12.43
2018-01-08T22:55:11.015Z,13.43
2018-01-08T22:57:38.505Z,14.52
2018-01-08T23:00:06.015Z,12.55
2018-01-08T23:02:33.573Z,13.62
2018-01-08T23:05:01.150Z,13.20
2018-01-08T23:07:28.735Z,13.50
2018-01-08T23:09:56.328Z,12.88
2018-01-08T23:12:23.813Z,15.15
2018-01-08T23:14:51.384Z,14.20
2018-01-08T23:17:18.859Z,13.35
2018-01-08T23:19:46.460Z,13.30
2018-01-08T23:22:13.958Z,13.40
2018-01-08T23:24:41.928Z,11.95
2018-01-08T23:27:09.414Z,12.85
2018-01-08T23:29:37.000Z,13.90
2018-01-08T23:32:04.496Z,14.02
2018-01-08T23:34:32.380Z,15.23
2018-01-08T23:36:59.888Z,14.20
2018-01-08T23:39:27.778Z,14.02
2018-01-08T23:41:55.667Z,12.68
2018-01-08T23:44:23.548Z,13.27
2018-01-08T23:46:51.452Z,14.00
2018-01-08T23:49:19.327Z,12.10
2018-01-08T23:51:46.841Z,12.57
2018-01-08T23:54:24.345Z,13.38
2018-01-08T23:56:52.317Z,13.60
2018-01-08T23:59:19.895Z,14.18
